sensor_id;sensor_type;location;lat;lon;timestamp;temperature;humidity
8792;DHT22;4432;50.890;4.744;2023-03-12T00:00:49;4.30;99.90
8792;DHT22;4432;50.890;4.744;2023-03-12T00:03:15;4.30;99.90
8792;DHT22;4432;50.890;4.744;2023-03-12T00:05:42;4.30;99.90
8792;DHT22;4432;50.890;4.744;2023-03-12T00:08:09;4.40;99.90
8792;DHT22;4432;50.890;4.744;2023-03-12T00:10:38;4.40;99.90
8792;DHT22;4432;50.890;4.744;2023-03-12T00:13:04;4.40;99.90
8792;DHT22;4432;50.890;4.744;2023-03-12T00:15:30;4.40;99.90
8792;DHT22;4432;50.890;4.744;2023-03-12T00:17:56;4.40;99.90
8792;DHT22;4432;50.890;4.744;2023-03-12T00:20:22;4.40;99.90
8792;DHT22;4432;50.890;4.744;2023-03-12T00:22:49;4.40;99.90
8792;DHT22;4432;50.890;4.744;2023-03-12T00:25:15;4.40;99.90
8792;DHT22;4432;50.890;4.744;2023-03-12T00:27:42;4.40;99.90
8792;DHT22;4432;50.890;4.744;2023-03-12T00:30:09;4.40;99.90
8792;DHT22;4432;50.890;4.744;2023-03-12T00:32:36;4.40;99.90
8792;DHT22;4432;50.890;4.744;2023-03-12T00:35:03;4.40;99.90
8792;DHT22;4432;50.890;4.744;2023-03-12T00:37:29;4.40;99.90
8792;DHT22;4432;50.890;4.744;2023-03-12T00:39:57;4.40;99.90
8792;DHT22;4432;50.890;4.744;2023-03-12T00:42:23;4.40;99.90
8792;DHT22;4432;50.890;4.744;2023-03-12T00:44:49;4.30;99.90
8792;DHT22;4432;50.890;4.744;2023-03-12T00:47:15;4.40;99.90
8792;DHT22;4432;50.890;4.744;2023-03-12T00:49:41;4.40;99.90
8792;DHT22;4432;50.890;4.744;2023-03-12T00:52:06;4.40;99.90
8792;DHT22;4432;50.890;4.744;2023-03-12T00:54:32;4.40;99.90
8792;DHT22;4432;50.890;4.744;2023-03-12T00:56:58;4.50;99.90
8792;DHT22;4432;50.890;4.744;2023-03-12T00:59:24;4.50;99.90
8792;DHT22;4432;50.890;4.744;2023-03-12T01:01:50;4.50;99.90
8792;DHT22;4432;50.890;4.744;2023-03-12T01:04:16;4.50;99.90
8792;DHT22;4432;50.890;4.744;2023-03-12T01:06:42;4.50;99.90
8792;DHT22;4432;50.890;4.744;2023-03-12T01:09:08;4.50;99.90
8792;DHT22;4432;50.890;4.744;2023-03-12T01:11:35;4.50;99.90
8792;DHT22;4432;50.890;4.744;2023-03-12T01:14:02;4.60;99.90
8792;DHT22;4432;50.890;4.744;2023-03-12T01:16:29;4.60;99.90
8792;DHT22;4432;50.890;4.744;2023-03-12T01:18:57;4.60;99.90
8792;DHT22;4432;50.890;4.744;2023-03-12T01:21:24;4.60;99.90
8792;DHT22;4432;50.890;4.744;2023-03-12T01:23:50;4.60;99.90
8792;DHT22;4432;50.890;4.744;2023-03-12T01:26:16;4.60;99.90
8792;DHT22;4432;50.890;4.744;2023-03-12T01:28:42;4.70;99.90
8792;DHT22;4432;50.890;4.744;2023-03-12T01:31:13;4.60;99.90
8792;DHT22;4432;50.890;4.744;2023-03-12T01:33:39;4.70;99.90
8792;DHT22;4432;50.890;4.744;2023-03-12T01:36:16;4.70;99.90
8792;DHT22;4432;50.890;4.744;2023-03-12T01:38:42;4.70;99.90
8792;DHT22;4432;50.890;4.744;2023-03-12T01:41:08;4.70;99.90
8792;DHT22;4432;50.890;4.744;2023-03-12T01:43:35;4.70;99.90
8792;DHT22;4432;50.890;4.744;2023-03-12T01:46:04;4.70;99.90
8792;DHT22;4432;50.890;4.744;2023-03-12T01:48:54;4.70;99.90
8792;DHT22;4432;50.890;4.744;2023-03-12T01:51:21;4.70;99.90
8792;DHT22;4432;50.890;4.744;2023-03-12T01:53:50;4.60;99.90
8792;DHT22;4432;50.890;4.744;2023-03-12T01:56:20;4.60;99.90
8792;DHT22;4432;50.890;4.744;2023-03-12T01:58:52;4.60;99.90
8792;DHT22;4432;50.890;4.744;2023-03-12T02:01:21;4.50;99.90
8792;DHT22;4432;50.890;4.744;2023-03-12T02:03:50;4.50;99.90
8792;DHT22;4432;50.890;4.744;2023-03-12T02:06:22;4.50;99.90
8792;DHT22;4432;50.890;4.744;2023-03-12T02:08:50;4.50;99.90
8792;DHT22;4432;50.890;4.744;2023-03-12T02:11:16;4.50;99.90
8792;DHT22;4432;50.890;4.744;2023-03-12T02:13:41;4.40;99.90
8792;DHT22;4432;50.890;4.744;2023-03-12T02:16:08;4.40;99.90
8792;DHT22;4432;50.890;4.744;2023-03-12T02:18:35;4.40;99.90
8792;DHT22;4432;50.890;4.744;2023-03-12T02:21:07;4.40;99.90
8792;DHT22;4432;50.890;4.744;2023-03-12T02:23:50;4.30;99.90
8792;DHT22;4432;50.890;4.744;2023-03-12T02:26:17;4.40;99.90
8792;DHT22;4432;50.890;4.744;2023-03-12T02:28:44;4.30;99.90
8792;DHT22;4432;50.890;4.744;2023-03-12T02:31:17;4.30;99.90
8792;DHT22;4432;50.890;4.744;2023-03-12T02:33:44;4.30;99.90
8792;DHT22;4432;50.890;4.744;2023-03-12T02:36:10;4.20;99.90
8792;DHT22;4432;50.890;4.744;2023-03-12T02:38:43;4.20;99.90
8792;DHT22;4432;50.890;4.744;2023-03-12T02:44:02;4.10;99.90
8792;DHT22;4432;50.890;4.744;2023-03-12T02:46:34;4.10;99.90
8792;DHT22;4432;50.890;4.744;2023-03-12T02:49:02;4.10;99.90
8792;DHT22;4432;50.890;4.744;2023-03-12T02:51:28;4.10;99.90
8792;DHT22;4432;50.890;4.744;2023-03-12T02:53:54;4.10;99.90
8792;DHT22;4432;50.890;4.744;2023-03-12T02:56:25;4.10;99.90
8792;DHT22;4432;50.890;4.744;2023-03-12T02:58:51;4.00;99.90
8792;DHT22;4432;50.890;4.744;2023-03-12T03:01:18;4.10;99.90
8792;DHT22;4432;50.890;4.744;2023-03-12T03:03:45;4.00;99.90
8792;DHT22;4432;50.890;4.744;2023-03-12T03:06:11;4.10;99.90
8792;DHT22;4432;50.890;4.744;2023-03-12T03:08:37;4.10;99.90
8792;DHT22;4432;50.890;4.744;2023-03-12T03:11:03;4.10;99.90
8792;DHT22;4432;50.890;4.744;2023-03-12T03:13:29;4.10;99.90
8792;DHT22;4432;50.890;4.744;2023-03-12T03:15:55;4.10;99.90
8792;DHT22;4432;50.890;4.744;2023-03-12T03:18:27;4.10;99.90
8792;DHT22;4432;50.890;4.744;2023-03-12T03:20:58;4.10;99.90
8792;DHT22;4432;50.890;4.744;2023-03-12T03:23:24;4.10;99.90
8792;DHT22;4432;50.890;4.744;2023-03-12T03:25:51;4.10;99.90
8792;DHT22;4432;50.890;4.744;2023-03-12T03:28:19;4.20;99.90
8792;DHT22;4432;50.890;4.744;2023-03-12T03:30:45;4.20;99.90
8792;DHT22;4432;50.890;4.744;2023-03-12T03:33:11;4.20;99.90
8792;DHT22;4432;50.890;4.744;2023-03-12T03:35:37;4.20;99.90
8792;DHT22;4432;50.890;4.744;2023-03-12T03:38:03;4.20;99.90
8792;DHT22;4432;50.890;4.744;2023-03-12T03:40:29;4.20;99.90
8792;DHT22;4432;50.890;4.744;2023-03-12T03:42:54;4.20;99.90
8792;DHT22;4432;50.890;4.744;2023-03-12T03:45:21;4.20;99.90
8792;DHT22;4432;50.890;4.744;2023-03-12T03:47:46;4.20;99.90
8792;DHT22;4432;50.890;4.744;2023-03-12T03:50:12;4.20;99.90
8792;DHT22;4432;50.890;4.744;2023-03-12T03:52:38;4.20;99.90
8792;DHT22;4432;50.890;4.744;2023-03-12T03:55:04;4.20;99.90
8792;DHT22;4432;50.890;4.744;2023-03-12T03:57:30;4.20;99.90
8792;DHT22;4432;50.890;4.744;2023-03-12T03:59:56;4.20;99.90
8792;DHT22;4432;50.890;4.744;2023-03-12T04:02:24;4.20;99.90
8792;DHT22;4432;50.890;4.744;2023-03-12T04:04:51;4.30;99.90
8792;DHT22;4432;50.890;4.744;2023-03-12T04:07:16;4.30;99.90
8792;DHT22;4432;50.890;4.744;2023-03-12T04:09:43;4.30;99.90
8792;DHT22;4432;50.890;4.744;2023-03-12T04:12:09;4.30;99.90
8792;DHT22;4432;50.890;4.744;2023-03-12T04:14:39;4.30;99.90
8792;DHT22;4432;50.890;4.744;2023-03-12T04:17:05;4.30;99.90
8792;DHT22;4432;50.890;4.744;2023-03-12T04:19:30;4.40;99.90
8792;DHT22;4432;50.890;4.744;2023-03-12T04:21:56;4.40;99.90
8792;DHT22;4432;50.890;4.744;2023-03-12T04:24:22;4.40;99.90
8792;DHT22;4432;50.890;4.744;2023-03-12T04:26:48;4.50;99.90
8792;DHT22;4432;50.890;4.744;2023-03-12T04:29:14;4.50;99.90
8792;DHT22;4432;50.890;4.744;2023-03-12T04:31:40;4.50;99.90
8792;DHT22;4432;50.890;4.744;2023-03-12T04:34:05;4.40;99.90
8792;DHT22;4432;50.890;4.744;2023-03-12T04:36:31;4.50;99.90
8792;DHT22;4432;50.890;4.744;2023-03-12T04:38:57;4.50;99.90
8792;DHT22;4432;50.890;4.744;2023-03-12T04:41:23;4.50;99.90
8792;DHT22;4432;50.890;4.744;2023-03-12T04:43:49;4.50;99.90
8792;DHT22;4432;50.890;4.744;2023-03-12T04:46:14;4.50;99.90
8792;DHT22;4432;50.890;4.744;2023-03-12T04:48:40;4.50;99.90
8792;DHT22;4432;50.890;4.744;2023-03-12T04:51:06;4.50;99.90
8792;DHT22;4432;50.890;4.744;2023-03-12T04:53:32;4.50;99.90
8792;DHT22;4432;50.890;4.744;2023-03-12T04:55:58;4.50;99.90
8792;DHT22;4432;50.890;4.744;2023-03-12T04:58:24;4.50;99.90
8792;DHT22;4432;50.890;4.744;2023-03-12T05:00:50;4.60;99.90
8792;DHT22;4432;50.890;4.744;2023-03-12T05:03:16;4.60;99.90
8792;DHT22;4432;50.890;4.744;2023-03-12T05:05:42;4.60;99.90
8792;DHT22;4432;50.890;4.744;2023-03-12T05:08:08;4.60;99.90
8792;DHT22;4432;50.890;4.744;2023-03-12T05:10:34;4.70;99.90
8792;DHT22;4432;50.890;4.744;2023-03-12T05:13:00;4.70;99.90
8792;DHT22;4432;50.890;4.744;2023-03-12T05:15:26;4.70;99.90
8792;DHT22;4432;50.890;4.744;2023-03-12T05:17:52;4.60;99.90
8792;DHT22;4432;50.890;4.744;2023-03-12T05:20:18;4.70;99.90
8792;DHT22;4432;50.890;4.744;2023-03-12T05:22:44;4.70;99.90
8792;DHT22;4432;50.890;4.744;2023-03-12T05:25:10;4.70;99.90
8792;DHT22;4432;50.890;4.744;2023-03-12T05:27:36;4.70;99.90
8792;DHT22;4432;50.890;4.744;2023-03-12T05:30:04;4.70;99.90
8792;DHT22;4432;50.890;4.744;2023-03-12T05:32:30;4.80;99.90
8792;DHT22;4432;50.890;4.744;2023-03-12T05:34:56;4.80;99.90
8792;DHT22;4432;50.890;4.744;2023-03-12T05:37:21;4.80;99.90
8792;DHT22;4432;50.890;4.744;2023-03-12T05:39:47;4.80;99.90
8792;DHT22;4432;50.890;4.744;2023-03-12T05:42:14;4.90;99.90
8792;DHT22;4432;50.890;4.744;2023-03-12T05:44:40;4.90;99.90
8792;DHT22;4432;50.890;4.744;2023-03-12T05:47:06;5.00;99.90
8792;DHT22;4432;50.890;4.744;2023-03-12T05:49:32;5.00;99.90
8792;DHT22;4432;50.890;4.744;2023-03-12T05:51:58;5.00;99.90
8792;DHT22;4432;50.890;4.744;2023-03-12T05:54:24;5.00;99.90
8792;DHT22;4432;50.890;4.744;2023-03-12T05:56:50;5.00;99.90
8792;DHT22;4432;50.890;4.744;2023-03-12T05:59:16;5.00;99.90
8792;DHT22;4432;50.890;4.744;2023-03-12T06:01:42;5.00;99.90
8792;DHT22;4432;50.890;4.744;2023-03-12T06:04:08;5.00;99.90
8792;DHT22;4432;50.890;4.744;2023-03-12T06:06:35;5.10;99.90
8792;DHT22;4432;50.890;4.744;2023-03-12T06:09:03;5.10;99.90
8792;DHT22;4432;50.890;4.744;2023-03-12T06:11:29;5.10;99.90
8792;DHT22;4432;50.890;4.744;2023-03-12T06:13:56;5.10;99.90
8792;DHT22;4432;50.890;4.744;2023-03-12T06:16:24;5.10;99.90
8792;DHT22;4432;50.890;4.744;2023-03-12T06:18:56;5.20;99.90
8792;DHT22;4432;50.890;4.744;2023-03-12T06:21:24;5.30;99.90
8792;DHT22;4432;50.890;4.744;2023-03-12T06:23:51;5.40;99.90
8792;DHT22;4432;50.890;4.744;2023-03-12T06:26:19;5.50;99.90
8792;DHT22;4432;50.890;4.744;2023-03-12T06:28:47;5.50;99.90
8792;DHT22;4432;50.890;4.744;2023-03-12T06:31:13;5.50;99.90
8792;DHT22;4432;50.890;4.744;2023-03-12T06:33:40;5.60;99.90
8792;DHT22;4432;50.890;4.744;2023-03-12T06:36:07;5.70;99.90
8792;DHT22;4432;50.890;4.744;2023-03-12T06:38:34;5.70;99.90
8792;DHT22;4432;50.890;4.744;2023-03-12T06:41:06;5.80;99.90
8792;DHT22;4432;50.890;4.744;2023-03-12T06:43:33;5.90;99.90
8792;DHT22;4432;50.890;4.744;2023-03-12T06:46:00;5.90;99.90
8792;DHT22;4432;50.890;4.744;2023-03-12T06:48:30;5.90;99.90
8792;DHT22;4432;50.890;4.744;2023-03-12T06:50:58;6.00;99.90
8792;DHT22;4432;50.890;4.744;2023-03-12T06:53:24;6.00;99.90
8792;DHT22;4432;50.890;4.744;2023-03-12T06:55:52;6.10;99.90
8792;DHT22;4432;50.890;4.744;2023-03-12T06:58:18;6.20;99.90
8792;DHT22;4432;50.890;4.744;2023-03-12T07:00:44;6.20;99.90
8792;DHT22;4432;50.890;4.744;2023-03-12T07:03:10;6.30;99.90
8792;DHT22;4432;50.890;4.744;2023-03-12T07:05:35;6.30;99.90
8792;DHT22;4432;50.890;4.744;2023-03-12T07:08:02;6.40;99.90
8792;DHT22;4432;50.890;4.744;2023-03-12T07:10:28;6.40;99.90
8792;DHT22;4432;50.890;4.744;2023-03-12T07:12:55;6.50;99.90
8792;DHT22;4432;50.890;4.744;2023-03-12T07:15:21;6.60;99.90
8792;DHT22;4432;50.890;4.744;2023-03-12T07:17:47;6.70;99.90
8792;DHT22;4432;50.890;4.744;2023-03-12T07:20:13;6.80;99.90
8792;DHT22;4432;50.890;4.744;2023-03-12T07:22:39;6.80;99.90
8792;DHT22;4432;50.890;4.744;2023-03-12T07:25:05;6.90;99.90
8792;DHT22;4432;50.890;4.744;2023-03-12T07:27:31;7.00;99.90
8792;DHT22;4432;50.890;4.744;2023-03-12T07:29:58;7.00;99.90
8792;DHT22;4432;50.890;4.744;2023-03-12T07:32:25;7.10;99.90
8792;DHT22;4432;50.890;4.744;2023-03-12T07:34:51;7.10;99.90
8792;DHT22;4432;50.890;4.744;2023-03-12T07:37:17;7.10;99.90
8792;DHT22;4432;50.890;4.744;2023-03-12T07:39:43;7.20;99.90
8792;DHT22;4432;50.890;4.744;2023-03-12T07:42:10;7.20;99.90
8792;DHT22;4432;50.890;4.744;2023-03-12T07:44:37;7.40;99.90
8792;DHT22;4432;50.890;4.744;2023-03-12T07:47:03;7.60;99.90
8792;DHT22;4432;50.890;4.744;2023-03-12T07:49:29;7.60;99.90
8792;DHT22;4432;50.890;4.744;2023-03-12T07:51:55;7.60;99.90
8792;DHT22;4432;50.890;4.744;2023-03-12T07:54:21;7.60;99.90
8792;DHT22;4432;50.890;4.744;2023-03-12T07:56:50;7.60;99.90
8792;DHT22;4432;50.890;4.744;2023-03-12T07:59:16;7.70;99.90
8792;DHT22;4432;50.890;4.744;2023-03-12T08:01:44;7.90;99.90
8792;DHT22;4432;50.890;4.744;2023-03-12T08:04:10;7.90;99.90
8792;DHT22;4432;50.890;4.744;2023-03-12T08:06:36;8.00;99.90
8792;DHT22;4432;50.890;4.744;2023-03-12T08:09:03;8.10;99.90
8792;DHT22;4432;50.890;4.744;2023-03-12T08:11:29;8.10;99.90
8792;DHT22;4432;50.890;4.744;2023-03-12T08:13:55;8.20;99.90
8792;DHT22;4432;50.890;4.744;2023-03-12T08:16:21;8.20;99.90
8792;DHT22;4432;50.890;4.744;2023-03-12T08:18:47;8.40;99.90
8792;DHT22;4432;50.890;4.744;2023-03-12T08:21:13;8.50;99.90
8792;DHT22;4432;50.890;4.744;2023-03-12T08:23:41;8.50;99.90
8792;DHT22;4432;50.890;4.744;2023-03-12T08:26:07;8.60;99.90
8792;DHT22;4432;50.890;4.744;2023-03-12T08:28:33;8.70;99.90
8792;DHT22;4432;50.890;4.744;2023-03-12T08:30:59;8.80;99.90
8792;DHT22;4432;50.890;4.744;2023-03-12T08:33:25;8.80;99.90
8792;DHT22;4432;50.890;4.744;2023-03-12T08:35:52;8.90;99.90
8792;DHT22;4432;50.890;4.744;2023-03-12T08:38:18;9.00;99.90
8792;DHT22;4432;50.890;4.744;2023-03-12T08:40:44;9.10;99.90
8792;DHT22;4432;50.890;4.744;2023-03-12T08:43:10;9.10;99.90
8792;DHT22;4432;50.890;4.744;2023-03-12T08:45:36;9.20;99.90
8792;DHT22;4432;50.890;4.744;2023-03-12T08:48:03;9.20;99.90
8792;DHT22;4432;50.890;4.744;2023-03-12T08:50:29;9.30;99.90
8792;DHT22;4432;50.890;4.744;2023-03-12T08:52:57;9.30;99.90
8792;DHT22;4432;50.890;4.744;2023-03-12T08:55:24;9.40;99.90
8792;DHT22;4432;50.890;4.744;2023-03-12T08:57:53;9.50;99.90
8792;DHT22;4432;50.890;4.744;2023-03-12T09:00:19;9.60;99.90
8792;DHT22;4432;50.890;4.744;2023-03-12T09:02:45;9.60;99.90
8792;DHT22;4432;50.890;4.744;2023-03-12T09:05:12;9.70;99.90
8792;DHT22;4432;50.890;4.744;2023-03-12T09:07:38;9.80;99.90
8792;DHT22;4432;50.890;4.744;2023-03-12T09:10:05;10.00;99.90
8792;DHT22;4432;50.890;4.744;2023-03-12T09:12:31;10.20;99.90
8792;DHT22;4432;50.890;4.744;2023-03-12T09:14:57;10.20;99.90
8792;DHT22;4432;50.890;4.744;2023-03-12T09:17:23;10.40;99.90
8792;DHT22;4432;50.890;4.744;2023-03-12T09:19:49;10.50;99.90
8792;DHT22;4432;50.890;4.744;2023-03-12T09:22:15;10.70;99.90
8792;DHT22;4432;50.890;4.744;2023-03-12T09:24:41;10.90;99.90
8792;DHT22;4432;50.890;4.744;2023-03-12T09:27:07;11.30;99.90
8792;DHT22;4432;50.890;4.744;2023-03-12T09:29:33;11.70;99.90
8792;DHT22;4432;50.890;4.744;2023-03-12T09:32:00;12.00;99.90
8792;DHT22;4432;50.890;4.744;2023-03-12T09:34:26;12.10;99.90
8792;DHT22;4432;50.890;4.744;2023-03-12T09:36:52;12.10;99.90
8792;DHT22;4432;50.890;4.744;2023-03-12T09:39:18;12.20;99.90
8792;DHT22;4432;50.890;4.744;2023-03-12T09:41:46;12.30;99.90
8792;DHT22;4432;50.890;4.744;2023-03-12T09:46:50;12.40;99.90
8792;DHT22;4432;50.890;4.744;2023-03-12T09:51:55;12.40;99.90
8792;DHT22;4432;50.890;4.744;2023-03-12T09:54:55;12.70;99.90
8792;DHT22;4432;50.890;4.744;2023-03-12T09:57:24;13.00;99.90
8792;DHT22;4432;50.890;4.744;2023-03-12T09:59:51;13.20;99.90
8792;DHT22;4432;50.890;4.744;2023-03-12T10:05:54;13.40;99.90
8792;DHT22;4432;50.890;4.744;2023-03-12T10:08:01;13.40;99.90
8792;DHT22;4432;50.890;4.744;2023-03-12T10:11:34;13.60;99.90
8792;DHT22;4432;50.890;4.744;2023-03-12T10:22:00;14.10;99.90
8792;DHT22;4432;50.890;4.744;2023-03-12T10:27:11;14.50;99.90
8792;DHT22;4432;50.890;4.744;2023-03-12T10:29:42;14.50;99.90
8792;DHT22;4432;50.890;4.744;2023-03-12T10:32:30;14.50;99.90
8792;DHT22;4432;50.890;4.744;2023-03-12T10:35:02;14.20;99.90
8792;DHT22;4432;50.890;4.744;2023-03-12T10:37:35;13.90;99.90
8792;DHT22;4432;50.890;4.744;2023-03-12T10:40:02;13.60;99.90
8792;DHT22;4432;50.890;4.744;2023-03-12T10:42:30;13.40;99.90
8792;DHT22;4432;50.890;4.744;2023-03-12T10:50:15;13.20;99.90
8792;DHT22;4432;50.890;4.744;2023-03-12T10:52:41;13.40;99.90
8792;DHT22;4432;50.890;4.744;2023-03-12T10:55:27;13.50;99.90
8792;DHT22;4432;50.890;4.744;2023-03-12T10:57:56;13.60;99.90
8792;DHT22;4432;50.890;4.744;2023-03-12T11:00:25;13.60;99.90
8792;DHT22;4432;50.890;4.744;2023-03-12T11:03:05;13.90;99.90
8792;DHT22;4432;50.890;4.744;2023-03-12T11:05:35;14.00;99.90
8792;DHT22;4432;50.890;4.744;2023-03-12T11:08:02;14.10;99.90
8792;DHT22;4432;50.890;4.744;2023-03-12T11:13:19;14.50;99.90
8792;DHT22;4432;50.890;4.744;2023-03-12T11:15:46;14.60;99.90
8792;DHT22;4432;50.890;4.744;2023-03-12T11:20:45;15.00;99.90
8792;DHT22;4432;50.890;4.744;2023-03-12T11:23:25;14.90;99.90
8792;DHT22;4432;50.890;4.744;2023-03-12T11:25:57;14.60;99.90
8792;DHT22;4432;50.890;4.744;2023-03-12T11:28:35;14.50;99.90
8792;DHT22;4432;50.890;4.744;2023-03-12T11:31:02;14.40;99.90
8792;DHT22;4432;50.890;4.744;2023-03-12T11:33:30;14.30;99.90
8792;DHT22;4432;50.890;4.744;2023-03-12T11:38:55;14.20;99.90
8792;DHT22;4432;50.890;4.744;2023-03-12T11:47:14;14.00;99.90
8792;DHT22;4432;50.890;4.744;2023-03-12T11:52:31;14.00;99.90
8792;DHT22;4432;50.890;4.744;2023-03-12T11:55:25;14.10;99.90
8792;DHT22;4432;50.890;4.744;2023-03-12T12:03:51;14.30;99.90
8792;DHT22;4432;50.890;4.744;2023-03-12T12:06:38;14.20;99.90
8792;DHT22;4432;50.890;4.744;2023-03-12T12:09:49;14.10;99.90
8792;DHT22;4432;50.890;4.744;2023-03-12T12:12:25;14.00;99.90
8792;DHT22;4432;50.890;4.744;2023-03-12T12:14:59;14.10;99.90
8792;DHT22;4432;50.890;4.744;2023-03-12T12:17:47;14.20;99.90
8792;DHT22;4432;50.890;4.744;2023-03-12T12:20:42;14.20;99.90
8792;DHT22;4432;50.890;4.744;2023-03-12T12:26:12;14.10;99.90
8792;DHT22;4432;50.890;4.744;2023-03-12T12:31:39;14.40;99.90
8792;DHT22;4432;50.890;4.744;2023-03-12T12:34:26;14.50;99.90
8792;DHT22;4432;50.890;4.744;2023-03-12T12:39:39;14.10;99.90
8792;DHT22;4432;50.890;4.744;2023-03-12T12:42:10;13.80;99.90
8792;DHT22;4432;50.890;4.744;2023-03-12T12:44:48;13.60;99.90
8792;DHT22;4432;50.890;4.744;2023-03-12T12:47:21;13.60;99.90
8792;DHT22;4432;50.890;4.744;2023-03-12T12:49:55;13.70;99.90
8792;DHT22;4432;50.890;4.744;2023-03-12T12:52:22;13.90;99.90
8792;DHT22;4432;50.890;4.744;2023-03-12T12:55:15;14.10;99.90
8792;DHT22;4432;50.890;4.744;2023-03-12T12:57:53;14.40;99.90
8792;DHT22;4432;50.890;4.744;2023-03-12T13:00:45;14.40;99.90
8792;DHT22;4432;50.890;4.744;2023-03-12T13:03:17;14.40;99.90
8792;DHT22;4432;50.890;4.744;2023-03-12T13:05:52;14.40;99.90
8792;DHT22;4432;50.890;4.744;2023-03-12T13:11:21;14.50;99.90
8792;DHT22;4432;50.890;4.744;2023-03-12T13:16:46;14.80;99.90
8792;DHT22;4432;50.890;4.744;2023-03-12T13:22:15;14.80;99.90
8792;DHT22;4432;50.890;4.744;2023-03-12T13:27:39;14.10;99.90
8792;DHT22;4432;50.890;4.744;2023-03-12T13:35:31;14.60;99.90
8792;DHT22;4432;50.890;4.744;2023-03-12T13:38:00;14.80;99.90
8792;DHT22;4432;50.890;4.744;2023-03-12T13:43:12;14.60;99.90
8792;DHT22;4432;50.890;4.744;2023-03-12T13:45:59;14.40;99.90
8792;DHT22;4432;50.890;4.744;2023-03-12T13:48:26;14.00;99.90
8792;DHT22;4432;50.890;4.744;2023-03-12T13:51:16;13.80;99.90
8792;DHT22;4432;50.890;4.744;2023-03-12T13:53:47;13.90;99.90
8792;DHT22;4432;50.890;4.744;2023-03-12T13:56:16;13.90;99.90
8792;DHT22;4432;50.890;4.744;2023-03-12T13:59:06;14.10;99.90
8792;DHT22;4432;50.890;4.744;2023-03-12T14:01:46;14.20;99.90
8792;DHT22;4432;50.890;4.744;2023-03-12T14:04:37;14.40;99.90
8792;DHT22;4432;50.890;4.744;2023-03-12T14:15:35;14.40;99.90
8792;DHT22;4432;50.890;4.744;2023-03-12T14:18:19;14.20;99.90
8792;DHT22;4432;50.890;4.744;2023-03-12T14:20:57;14.10;99.90
8792;DHT22;4432;50.890;4.744;2023-03-12T14:23:27;14.10;99.90
8792;DHT22;4432;50.890;4.744;2023-03-12T14:25:58;14.10;99.90
8792;DHT22;4432;50.890;4.744;2023-03-12T14:28:25;14.00;99.90
8792;DHT22;4432;50.890;4.744;2023-03-12T14:31:04;13.90;99.90
8792;DHT22;4432;50.890;4.744;2023-03-12T14:33:41;13.90;99.90
8792;DHT22;4432;50.890;4.744;2023-03-12T14:36:18;13.90;99.90
8792;DHT22;4432;50.890;4.744;2023-03-12T14:38:47;13.80;99.90
8792;DHT22;4432;50.890;4.744;2023-03-12T14:41:34;13.90;99.90
8792;DHT22;4432;50.890;4.744;2023-03-12T14:44:05;13.90;99.90
8792;DHT22;4432;50.890;4.744;2023-03-12T14:46:31;14.00;99.90
8792;DHT22;4432;50.890;4.744;2023-03-12T14:48:57;13.90;99.90
8792;DHT22;4432;50.890;4.744;2023-03-12T14:51:28;13.90;99.90
8792;DHT22;4432;50.890;4.744;2023-03-12T14:53:54;13.80;99.90
8792;DHT22;4432;50.890;4.744;2023-03-12T14:56:32;13.70;99.90
8792;DHT22;4432;50.890;4.744;2023-03-12T14:59:17;13.70;99.90
8792;DHT22;4432;50.890;4.744;2023-03-12T15:01:45;13.80;99.90
8792;DHT22;4432;50.890;4.744;2023-03-12T15:04:21;13.80;99.90
8792;DHT22;4432;50.890;4.744;2023-03-12T15:06:51;13.90;99.90
8792;DHT22;4432;50.890;4.744;2023-03-12T15:09:25;14.00;99.90
8792;DHT22;4432;50.890;4.744;2023-03-12T15:12:03;14.00;99.90
8792;DHT22;4432;50.890;4.744;2023-03-12T15:14:33;14.00;99.90
8792;DHT22;4432;50.890;4.744;2023-03-12T15:17:02;13.90;99.90
8792;DHT22;4432;50.890;4.744;2023-03-12T15:19:32;13.90;99.90
8792;DHT22;4432;50.890;4.744;2023-03-12T15:22:00;14.00;99.90
8792;DHT22;4432;50.890;4.744;2023-03-12T15:24:28;13.80;99.90
8792;DHT22;4432;50.890;4.744;2023-03-12T15:26:54;13.80;99.90
8792;DHT22;4432;50.890;4.744;2023-03-12T15:29:24;13.70;99.90
8792;DHT22;4432;50.890;4.744;2023-03-12T15:31:55;13.70;99.90
8792;DHT22;4432;50.890;4.744;2023-03-12T15:34:33;13.60;99.90
8792;DHT22;4432;50.890;4.744;2023-03-12T15:37:22;13.50;99.90
8792;DHT22;4432;50.890;4.744;2023-03-12T15:39:58;13.30;99.90
8792;DHT22;4432;50.890;4.744;2023-03-12T15:42:26;13.30;99.90
8792;DHT22;4432;50.890;4.744;2023-03-12T15:44:58;13.20;99.90
8792;DHT22;4432;50.890;4.744;2023-03-12T15:47:29;13.30;99.90
8792;DHT22;4432;50.890;4.744;2023-03-12T15:49:59;13.30;99.90
8792;DHT22;4432;50.890;4.744;2023-03-12T15:52:34;13.30;99.90
8792;DHT22;4432;50.890;4.744;2023-03-12T15:57:28;13.20;99.90
8792;DHT22;4432;50.890;4.744;2023-03-12T16:02:55;13.10;99.90
8792;DHT22;4432;50.890;4.744;2023-03-12T16:05:27;13.10;99.90
8792;DHT22;4432;50.890;4.744;2023-03-12T16:07:53;13.20;99.90
8792;DHT22;4432;50.890;4.744;2023-03-12T16:10:21;13.10;99.90
8792;DHT22;4432;50.890;4.744;2023-03-12T16:12:49;13.20;99.90
8792;DHT22;4432;50.890;4.744;2023-03-12T16:15:21;13.20;99.90
8792;DHT22;4432;50.890;4.744;2023-03-12T16:17:51;13.10;99.90
8792;DHT22;4432;50.890;4.744;2023-03-12T16:20:17;13.10;99.90
8792;DHT22;4432;50.890;4.744;2023-03-12T16:22:44;13.00;99.90
8792;DHT22;4432;50.890;4.744;2023-03-12T16:25:10;13.00;99.90
8792;DHT22;4432;50.890;4.744;2023-03-12T16:27:48;13.00;99.90
8792;DHT22;4432;50.890;4.744;2023-03-12T16:30:19;13.00;99.90
8792;DHT22;4432;50.890;4.744;2023-03-12T16:32:47;12.90;99.90
8792;DHT22;4432;50.890;4.744;2023-03-12T16:35:18;12.90;99.90
8792;DHT22;4432;50.890;4.744;2023-03-12T16:37:44;12.70;99.90
8792;DHT22;4432;50.890;4.744;2023-03-12T16:40:12;12.70;99.90
8792;DHT22;4432;50.890;4.744;2023-03-12T16:42:40;12.70;99.90
8792;DHT22;4432;50.890;4.744;2023-03-12T16:45:09;12.70;99.90
8792;DHT22;4432;50.890;4.744;2023-03-12T16:47:36;12.70;99.90
8792;DHT22;4432;50.890;4.744;2023-03-12T16:50:04;12.70;99.90
8792;DHT22;4432;50.890;4.744;2023-03-12T16:52:35;12.70;99.90
8792;DHT22;4432;50.890;4.744;2023-03-12T16:55:00;12.60;99.90
8792;DHT22;4432;50.890;4.744;2023-03-12T16:57:33;12.60;99.90
8792;DHT22;4432;50.890;4.744;2023-03-12T17:00:00;12.60;99.90
8792;DHT22;4432;50.890;4.744;2023-03-12T17:02:26;12.60;99.90
8792;DHT22;4432;50.890;4.744;2023-03-12T17:04:54;12.60;99.90
8792;DHT22;4432;50.890;4.744;2023-03-12T17:07:20;12.60;99.90
8792;DHT22;4432;50.890;4.744;2023-03-12T17:09:46;12.50;99.90
8792;DHT22;4432;50.890;4.744;2023-03-12T17:12:28;12.50;99.90
8792;DHT22;4432;50.890;4.744;2023-03-12T17:14:55;12.40;99.90
8792;DHT22;4432;50.890;4.744;2023-03-12T17:17:22;12.40;99.90
8792;DHT22;4432;50.890;4.744;2023-03-12T17:19:48;12.30;99.90
8792;DHT22;4432;50.890;4.744;2023-03-12T17:22:15;12.20;99.90
8792;DHT22;4432;50.890;4.744;2023-03-12T17:24:40;12.20;99.90
8792;DHT22;4432;50.890;4.744;2023-03-12T17:27:06;12.10;99.90
8792;DHT22;4432;50.890;4.744;2023-03-12T17:29:32;12.10;99.90
8792;DHT22;4432;50.890;4.744;2023-03-12T17:31:58;12.00;99.90
8792;DHT22;4432;50.890;4.744;2023-03-12T17:34:23;11.90;99.90
8792;DHT22;4432;50.890;4.744;2023-03-12T17:36:49;11.80;99.90
8792;DHT22;4432;50.890;4.744;2023-03-12T17:39:15;11.80;99.90
8792;DHT22;4432;50.890;4.744;2023-03-12T17:41:41;11.70;99.90
8792;DHT22;4432;50.890;4.744;2023-03-12T17:44:07;11.60;99.90
8792;DHT22;4432;50.890;4.744;2023-03-12T17:46:33;11.50;99.90
8792;DHT22;4432;50.890;4.744;2023-03-12T17:48:59;11.40;99.90
8792;DHT22;4432;50.890;4.744;2023-03-12T17:51:25;11.40;99.90
8792;DHT22;4432;50.890;4.744;2023-03-12T17:53:51;11.40;99.90